Time;durP1;ratioP1;P1;durP2;ratioP2;P2;SDS_P1;SDS_P2;PMS_P1;PMS_P2;Temp;Humidity;BMP_temperature;BMP_pressure;BME280_temperature;BME280_humidity;BME280_pressure;Samples;Min_cycle;Max_cycle;Signal;HPM_P1;HPM_P2
2020/12/28 00:00:24;;;;;;;;;;;;;;;;;;5059979;28;19925;-83
2020/12/28 00:02:51;;;;;;;;;;;;;;;;;;5071332;28;19924;-84
2020/12/28 00:05:18;;;;;;;;;;;;;;;;;;5079977;28;19925;-83
2020/12/28 00:07:44;;;;;;;;;;;;;;;;;;5079986;28;20019;-83
2020/12/28 00:10:10;;;;;;;;;;;;;;;;;;5072594;28;19947;-83
2020/12/28 00:12:47;;;;;;;;;;;;;;;;;;5059834;28;20436;-83
2020/12/28 00:15:13;;;;;;;;;;;;;;;;;;5059969;28;19952;-85
2020/12/28 00:17:39;;;;;;;;;;;;;;;;;;5059867;28;19932;-83
2020/12/28 00:20:06;;;;;;;;;;;;;;;;;;5071984;28;19954;-83
2020/12/28 00:22:32;;;;;;;;;;;;;;;;;;5079730;28;20324;-83
2020/12/28 00:24:59;;;;;;;;;;;;;;;;;;5081188;28;19924;-83
2020/12/28 00:27:25;;;;;;;;;;;;;;;;;;5079963;28;19925;-83
2020/12/28 00:29:51;;;;;;;;;;;;;;;;;;5081216;28;19925;-83
2020/12/28 00:32:18;;;;;;;;;;;;;;;;;;5068258;28;19925;-84
2020/12/28 00:34:44;;;;;;;;;;;;;;;;;;5039813;28;19925;-83
2020/12/28 00:37:10;;;;;;;;;;;;;;;;;;5040075;28;19925;-83
2020/12/28 00:39:37;;;;;;;;;;;;;;;;;;5039740;28;20305;-83
2020/12/28 00:42:03;;;;;;;;;;;;;;;;;;5039088;28;19932;-84
2020/12/28 00:44:30;;;;;;;;;;;;;;;;;;5039081;28;19952;-83
2020/12/28 00:46:56;;;;;;;;;;;;;;;;;;5039596;28;20138;-83
2020/12/28 00:49:22;;;;;;;;;;;;;;;;;;5056936;28;19931;-83
2020/12/28 00:51:49;;;;;;;;;;;;;;;;;;5058296;28;20370;-83
2020/12/28 00:54:15;;;;;;;;;;;;;;;;;;5059344;28;19925;-83
2020/12/28 00:56:42;;;;;;;;;;;;;;;;;;5059473;28;19925;-83
2020/12/28 00:59:08;;;;;;;;;;;;;;;;;;5059196;28;19932;-83
2020/12/28 01:01:34;;;;;;;;;;;;;;;;;;5056774;28;19929;-83
2020/12/28 01:04:01;;;;;;;;;;;;;;;;;;5039262;28;19995;-83
2020/12/28 01:06:27;;;;;;;;;;;;;;;;;;5039411;28;19949;-83
2020/12/28 01:08:53;;;;;;;;;;;;;;;;;;5038973;28;20304;-83
2020/12/28 01:11:20;;;;;;;;;;;;;;;;;;5039451;28;19928;-84
2020/12/28 01:13:46;;;;;;;;;;;;;;;;;;5039001;28;19929;-83
2020/12/28 01:16:13;;;;;;;;;;;;;;;;;;5038467;28;19925;-83
2020/12/28 01:18:39;;;;;;;;;;;;;;;;;;5039370;28;19932;-83
2020/12/28 01:21:05;;;;;;;;;;;;;;;;;;5039127;28;19925;-83
2020/12/28 01:23:32;;;;;;;;;;;;;;;;;;5051279;28;19926;-83
2020/12/28 01:25:58;;;;;;;;;;;;;;;;;;5060147;28;19924;-85
2020/12/28 01:28:24;;;;;;;;;;;;;;;;;;5059997;28;20381;-84
2020/12/28 01:30:51;;;;;;;;;;;;;;;;;;5058893;28;20023;-84
2020/12/28 01:33:17;;;;;;;;;;;;;;;;;;5060785;28;19924;-84
2020/12/28 01:35:44;;;;;;;;;;;;;;;;;;5061900;28;19925;-83
2020/12/28 01:38:10;;;;;;;;;;;;;;;;;;5066265;28;19925;-83
2020/12/28 01:40:36;;;;;;;;;;;;;;;;;;5066237;28;19929;-83
2020/12/28 01:43:03;;;;;;;;;;;;;;;;;;5065526;28;19924;-83
2020/12/28 01:45:29;;;;;;;;;;;;;;;;;;5059697;28;19924;-84
2020/12/28 01:47:55;;;;;;;;;;;;;;;;;;5058729;28;19925;-83
2020/12/28 01:50:22;;;;;;;;;;;;;;;;;;5058842;28;19925;-84
2020/12/28 01:52:48;;;;;;;;;;;;;;;;;;5058961;28;19933;-85
2020/12/28 01:55:15;;;;;;;;;;;;;;;;;;5058587;28;19947;-84
2020/12/28 01:57:41;;;;;;;;;;;;;;;;;;5060191;28;19940;-83
2020/12/28 02:00:07;;;;;;;;;;;;;;;;;;5060266;28;19929;-83
2020/12/28 02:02:34;;;;;;;;;;;;;;;;;;5060611;28;19991;-83
2020/12/28 02:05:01;;;;;;;;;;;;;;;;;;5061818;28;19924;-83
2020/12/28 02:07:27;;;;;;;;;;;;;;;;;;5111721;22;19915;-82
2020/12/28 02:09:54;;;;;;;;;;;;;;;;;;5071168;28;19982;-83
2020/12/28 02:12:20;;;;;;;;;;;;;;;;;;5058748;28;20376;-82
2020/12/28 02:14:46;;;;;;;;;;;;;;;;;;5058393;28;19925;-83
2020/12/28 02:17:13;;;;;;;;;;;;;;;;;;5058564;28;20377;-83
2020/12/28 02:19:39;;;;;;;;;;;;;;;;;;5073856;28;19932;-83
2020/12/28 02:22:06;;;;;;;;;;;;;;;;;;5065704;28;19947;-81
2020/12/28 02:24:32;;;;;;;;;;;;;;;;;;5073869;28;19925;-83
2020/12/28 02:26:58;;;;;;;;;;;;;;;;;;5073166;28;19925;-81
2020/12/28 02:29:25;;;;;;;;;;;;;;;;;;5061996;28;19925;-82
2020/12/28 02:31:51;;;;;;;;;;;;;;;;;;5078172;28;20412;-83
2020/12/28 02:34:18;;;;;;;;;;;;;;;;;;5078606;28;19929;-83
2020/12/28 02:36:44;;;;;;;;;;;;;;;;;;5078594;28;19925;-82
2020/12/28 02:39:11;;;;;;;;;;;;;;;;;;5078345;28;19925;-84
2020/12/28 02:41:37;;;;;;;;;;;;;;;;;;5078956;28;19924;-82
2020/12/28 02:44:03;;;;;;;;;;;;;;;;;;5079586;28;19931;-83
2020/12/28 02:46:30;;;;;;;;;;;;;;;;;;5088000;28;19924;-83
2020/12/28 02:48:56;;;;;;;;;;;;;;;;;;5085292;28;19928;-83
2020/12/28 02:51:22;;;;;;;;;;;;;;;;;;5078368;28;19929;-83
2020/12/28 02:53:49;;;;;;;;;;;;;;;;;;5079561;28;19932;-84
2020/12/28 02:56:15;;;;;;;;;;;;;;;;;;5079133;28;19978;-85
2020/12/28 02:58:41;;;;;;;;;;;;;;;;;;5079660;28;20296;-85
2020/12/28 03:01:08;;;;;;;;;;;;;;;;;;5079975;28;19924;-85
2020/12/28 03:03:34;;;;;;;;;;;;;;;;;;5080222;28;19931;-85
2020/12/28 03:06:01;;;;;;;;;;;;;;;;;;5078898;28;19956;-85
2020/12/28 03:08:27;;;;;;;;;;;;;;;;;;5080708;28;19924;-85
2020/12/28 03:10:53;;;;;;;;;;;;;;;;;;5080357;28;19931;-85
2020/12/28 03:13:20;;;;;;;;;;;;;;;;;;5073235;28;19916;-83
2020/12/28 03:15:46;;;;;;;;;;;;;;;;;;5084214;28;19923;-78
2020/12/28 03:18:12;;;;;;;;;;;;;;;;;;5079244;28;19931;-80
2020/12/28 03:20:39;;;;;;;;;;;;;;;;;;5070649;28;20393;-85
2020/12/28 03:23:05;;;;;;;;;;;;;;;;;;5076066;28;19924;-86
2020/12/28 03:25:32;;;;;;;;;;;;;;;;;;5081791;28;19932;-85
2020/12/28 03:27:58;;;;;;;;;;;;;;;;;;5096294;28;19924;-81
2020/12/28 03:30:25;;;;;;;;;;;;;;;;;;5096738;28;19909;-79
2020/12/28 03:32:52;;;;;;;;;;;;;;;;;;5067087;28;19983;-84
2020/12/28 03:35:18;;;;;;;;;;;;;;;;;;5065880;28;20388;-83
2020/12/28 03:37:44;;;;;;;;;;;;;;;;;;5062610;28;19944;-83
2020/12/28 03:40:11;;;;;;;;;;;;;;;;;;5060313;28;19928;-82
2020/12/28 03:42:37;;;;;;;;;;;;;;;;;;5064806;28;19928;-83
2020/12/28 03:45:09;;;;;;;;;;;;;;;;;;5066096;28;19944;-83
2020/12/28 03:47:36;;;;;;;;;;;;;;;;;;5066186;28;20290;-83
2020/12/28 03:50:02;;;;;;;;;;;;;;;;;;5062638;28;19982;-82
2020/12/28 03:52:29;;;;;;;;;;;;;;;;;;5075717;28;20388;-86
2020/12/28 03:54:55;;;;;;;;;;;;;;;;;;5078983;28;19928;-84
2020/12/28 03:57:21;;;;;;;;;;;;;;;;;;5077354;28;19924;-85
2020/12/28 03:59:48;;;;;;;;;;;;;;;;;;5080295;28;20289;-85
2020/12/28 04:02:14;;;;;;;;;;;;;;;;;;5066764;28;19925;-84
2020/12/28 04:04:40;;;;;;;;;;;;;;;;;;5059800;28;20431;-84
2020/12/28 04:07:07;;;;;;;;;;;;;;;;;;5058043;28;19932;-84
2020/12/28 04:09:33;;;;;;;;;;;;;;;;;;5057527;28;19936;-81
2020/12/28 04:12:00;;;;;;;;;;;;;;;;;;5071582;28;19925;-84
2020/12/28 04:14:26;;;;;;;;;;;;;;;;;;5076433;28;19936;-84
2020/12/28 04:16:52;;;;;;;;;;;;;;;;;;5070035;28;19928;-83
2020/12/28 04:19:19;;;;;;;;;;;;;;;;;;5077533;28;20015;-81
2020/12/28 04:21:45;;;;;;;;;;;;;;;;;;5074720;28;20301;-81
2020/12/28 04:24:15;;;;;;;;;;;;;;;;;;5075079;28;19924;-80
2020/12/28 04:26:42;;;;;;;;;;;;;;;;;;5063772;28;19928;-80
2020/12/28 04:29:08;;;;;;;;;;;;;;;;;;5065307;28;19960;-82
2020/12/28 04:31:35;;;;;;;;;;;;;;;;;;5070879;28;20054;-83
2020/12/28 04:34:01;;;;;;;;;;;;;;;;;;5080376;28;19925;-83
2020/12/28 04:36:27;;;;;;;;;;;;;;;;;;5074715;28;19939;-83
2020/12/28 04:38:54;;;;;;;;;;;;;;;;;;5079870;28;19924;-83
2020/12/28 04:41:20;;;;;;;;;;;;;;;;;;5071445;28;19925;-83
2020/12/28 04:43:46;;;;;;;;;;;;;;;;;;5083500;28;19924;-79
2020/12/28 04:46:13;;;;;;;;;;;;;;;;;;5079639;28;19917;-81
2020/12/28 04:48:39;;;;;;;;;;;;;;;;;;5080576;28;19908;-79
2020/12/28 04:51:06;;;;;;;;;;;;;;;;;;5080826;28;19933;-82
2020/12/28 04:53:32;;;;;;;;;;;;;;;;;;5091862;28;19929;-81
2020/12/28 04:55:58;;;;;;;;;;;;;;;;;;5086449;28;19939;-80
2020/12/28 04:58:25;;;;;;;;;;;;;;;;;;5070516;28;20007;-82
2020/12/28 05:00:51;;;;;;;;;;;;;;;;;;5064772;28;19979;-82
2020/12/28 05:03:17;;;;;;;;;;;;;;;;;;5073344;28;20289;-82
2020/12/28 05:05:44;;;;;;;;;;;;;;;;;;5077058;28;19932;-82
2020/12/28 05:08:10;;;;;;;;;;;;;;;;;;5063108;28;19931;-82
2020/12/28 05:10:37;;;;;;;;;;;;;;;;;;5083114;28;19924;-81
2020/12/28 05:13:03;;;;;;;;;;;;;;;;;;5089194;28;19931;-82
2020/12/28 05:15:29;;;;;;;;;;;;;;;;;;5078055;28;20365;-80
2020/12/28 05:17:56;;;;;;;;;;;;;;;;;;5079105;28;19925;-80
2020/12/28 05:20:22;;;;;;;;;;;;;;;;;;5077551;28;19932;-82
2020/12/28 05:22:49;;;;;;;;;;;;;;;;;;5060544;28;20385;-81
2020/12/28 05:25:15;;;;;;;;;;;;;;;;;;5059417;28;19924;-83
2020/12/28 05:27:41;;;;;;;;;;;;;;;;;;5069678;28;19939;-83
2020/12/28 05:30:08;;;;;;;;;;;;;;;;;;5067192;28;19947;-83
2020/12/28 05:32:34;;;;;;;;;;;;;;;;;;5065165;28;19931;-84
2020/12/28 05:35:00;;;;;;;;;;;;;;;;;;5065312;28;19936;-84
2020/12/28 05:37:27;;;;;;;;;;;;;;;;;;5063987;28;20365;-85
2020/12/28 05:39:53;;;;;;;;;;;;;;;;;;5060005;28;19948;-85
2020/12/28 05:42:20;;;;;;;;;;;;;;;;;;5074703;28;19932;-81
2020/12/28 05:44:46;;;;;;;;;;;;;;;;;;5073808;28;19946;-84
2020/12/28 05:47:12;;;;;;;;;;;;;;;;;;5066310;28;19928;-83
2020/12/28 05:49:39;;;;;;;;;;;;;;;;;;5076075;28;19924;-85
2020/12/28 05:52:05;;;;;;;;;;;;;;;;;;5066280;28;20485;-84
2020/12/28 05:54:31;;;;;;;;;;;;;;;;;;5072631;28;20128;-84
2020/12/28 05:56:58;;;;;;;;;;;;;;;;;;5067483;28;21014;-84
2020/12/28 05:59:24;;;;;;;;;;;;;;;;;;5077950;28;19973;-84
2020/12/28 06:01:50;;;;;;;;;;;;;;;;;;5080957;28;21336;-85
2020/12/28 06:04:17;;;;;;;;;;;;;;;;;;5080000;28;25131;-82
2020/12/28 06:06:43;;;;;;;;;;;;;;;;;;5057108;28;19962;-81
2020/12/28 06:09:10;;;;;;;;;;;;;;;;;;5069585;28;20087;-84
2020/12/28 06:11:36;;;;;;;;;;;;;;;;;;5082030;28;19961;-83
2020/12/28 06:14:02;;;;;;;;;;;;;;;;;;5098282;28;20143;-82
2020/12/28 06:16:29;;;;;;;;;;;;;;;;;;5088765;28;20591;-84
2020/12/28 06:18:55;;;;;;;;;;;;;;;;;;5078577;28;20552;-82
2020/12/28 06:21:21;;;;;;;;;;;;;;;;;;5074758;28;20057;-84
2020/12/28 06:23:48;;;;;;;;;;;;;;;;;;5074095;28;25076;-83
2020/12/28 06:26:14;;;;;;;;;;;;;;;;;;5075769;28;20041;-83
2020/12/28 06:28:41;;;;;;;;;;;;;;;;;;5078652;28;19943;-83
2020/12/28 06:31:07;;;;;;;;;;;;;;;;;;5078710;28;20389;-82
2020/12/28 06:33:33;;;;;;;;;;;;;;;;;;5076040;28;20020;-81
2020/12/28 06:36:00;;;;;;;;;;;;;;;;;;5087349;28;20028;-81
2020/12/28 06:38:26;;;;;;;;;;;;;;;;;;5072970;28;21283;-81
2020/12/28 06:40:52;;;;;;;;;;;;;;;;;;5073659;28;26142;-82
2020/12/28 06:43:19;;;;;;;;;;;;;;;;;;5062159;28;22453;-82
2020/12/28 06:45:46;;;;;;;;;;;;;;;;;;5060290;28;28133;-82
2020/12/28 06:48:12;;;;;;;;;;;;;;;;;;5070024;28;22358;-81
2020/12/28 06:50:38;;;;;;;;;;;;;;;;;;5069698;28;23492;-81
2020/12/28 06:53:05;;;;;;;;;;;;;;;;;;5076556;28;20272;-81
2020/12/28 06:55:31;;;;;;;;;;;;;;;;;;5081183;28;20386;-81
2020/12/28 06:57:58;;;;;;;;;;;;;;;;;;5063551;28;20413;-81
2020/12/28 07:00:24;;;;;;;;;;;;;;;;;;5060400;28;29027;-81
2020/12/28 07:02:50;;;;;;;;;;;;;;;;;;5060245;28;27114;-82
2020/12/28 07:05:17;;;;;;;;;;;;;;;;;;5073613;28;25732;-81
2020/12/28 07:07:43;;;;;;;;;;;;;;;;;;5058351;28;20772;-82
2020/12/28 07:10:09;;;;;;;;;;;;;;;;;;5061162;28;20392;-80
2020/12/28 07:12:36;;;;;;;;;;;;;;;;;;5056989;28;20418;-80
2020/12/28 07:15:02;;;;;;;;;;;;;;;;;;5073268;28;20385;-80
2020/12/28 07:17:28;;;;;;;;;;;;;;;;;;5070607;28;20405;-80
2020/12/28 07:19:57;;;;;;;;;;;;;;;;;;5064620;28;20378;-82
2020/12/28 07:22:23;;;;;;;;;;;;;;;;;;5080444;28;20392;-80
2020/12/28 07:24:50;;;;;;;;;;;;;;;;;;5074341;28;20416;-83
2020/12/28 07:27:16;;;;;;;;;;;;;;;;;;5075674;28;20463;-84
2020/12/28 07:29:43;;;;;;;;;;;;;;;;;;5076621;28;20389;-83
2020/12/28 07:32:09;;;;;;;;;;;;;;;;;;5074199;28;20853;-83
2020/12/28 07:34:36;;;;;;;;;;;;;;;;;;5089101;28;20432;-80
2020/12/28 07:37:02;;;;;;;;;;;;;;;;;;5080831;28;20401;-80
2020/12/28 07:39:28;;;;;;;;;;;;;;;;;;5091126;28;20385;-80
2020/12/28 07:41:55;;;;;;;;;;;;;;;;;;5063560;28;20387;-81
2020/12/28 07:44:21;;;;;;;;;;;;;;;;;;5061535;28;20888;-80
2020/12/28 07:46:48;;;;;;;;;;;;;;;;;;5074475;28;20435;-81
2020/12/28 07:49:14;;;;;;;;;;;;;;;;;;5076070;28;20382;-79
2020/12/28 07:51:41;;;;;;;;;;;;;;;;;;5076037;28;20405;-80
2020/12/28 07:54:07;;;;;;;;;;;;;;;;;;5079206;28;20397;-80
2020/12/28 07:56:33;;;;;;;;;;;;;;;;;;5076585;28;20773;-80
2020/12/28 07:59:00;;;;;;;;;;;;;;;;;;5064897;28;20390;-80
2020/12/28 08:01:26;;;;;;;;;;;;;;;;;;5064725;28;21122;-83
2020/12/28 08:03:52;;;;;;;;;;;;;;;;;;5087354;28;20384;-78
2020/12/28 08:06:19;;;;;;;;;;;;;;;;;;5106510;22;20408;-83
2020/12/28 08:08:46;;;;;;;;;;;;;;;;;;5059933;28;20384;-82
2020/12/28 08:11:12;;;;;;;;;;;;;;;;;;5058958;28;20394;-82
2020/12/28 08:13:38;;;;;;;;;;;;;;;;;;5049032;28;20437;-82
2020/12/28 08:16:05;;;;;;;;;;;;;;;;;;5041506;28;20379;-82
2020/12/28 08:18:31;;;;;;;;;;;;;;;;;;5020292;28;20386;-82
2020/12/28 08:20:58;;;;;;;;;;;;;;;;;;5025786;28;20750;-82
2020/12/28 08:23:24;;;;;;;;;;;;;;;;;;5026542;28;20452;-82
2020/12/28 08:25:50;;;;;;;;;;;;;;;;;;5029729;28;20416;-82
2020/12/28 08:28:17;;;;;;;;;;;;;;;;;;5026737;28;20417;-82
2020/12/28 08:30:43;;;;;;;;;;;;;;;;;;5020481;28;20390;-82
2020/12/28 08:33:09;;;;;;;;;;;;;;;;;;5028565;28;20383;-82
2020/12/28 08:35:36;;;;;;;;;;;;;;;;;;5039785;28;20388;-83
2020/12/28 08:38:02;;;;;;;;;;;;;;;;;;5026347;28;20445;-81
2020/12/28 08:40:28;;;;;;;;;;;;;;;;;;5026780;28;20394;-82
2020/12/28 08:42:55;;;;;;;;;;;;;;;;;;5020492;28;20394;-82
2020/12/28 08:45:22;;;;;;;;;;;;;;;;;;5019320;28;20402;-84
2020/12/28 08:47:48;;;;;;;;;;;;;;;;;;5020749;28;20406;-82
2020/12/28 08:50:14;;;;;;;;;;;;;;;;;;5032084;28;20390;-82
2020/12/28 08:52:41;;;;;;;;;;;;;;;;;;5038644;28;20751;-82
2020/12/28 08:55:07;;;;;;;;;;;;;;;;;;5028106;28;20390;-82
2020/12/28 08:57:33;;;;;;;;;;;;;;;;;;5029389;28;20408;-81
2020/12/28 09:00:00;;;;;;;;;;;;;;;;;;5041552;28;20414;-82
2020/12/28 09:02:26;;;;;;;;;;;;;;;;;;5042394;28;20395;-82
2020/12/28 09:04:52;;;;;;;;;;;;;;;;;;5033533;28;20413;-82
2020/12/28 09:07:19;;;;;;;;;;;;;;;;;;5028936;28;20441;-82
2020/12/28 09:09:45;;;;;;;;;;;;;;;;;;5039011;28;20387;-84
2020/12/28 09:12:12;;;;;;;;;;;;;;;;;;5034013;28;20844;-82
2020/12/28 09:14:38;;;;;;;;;;;;;;;;;;5034560;28;20453;-83
2020/12/28 09:17:04;;;;;;;;;;;;;;;;;;5027263;28;20406;-81
2020/12/28 09:19:31;;;;;;;;;;;;;;;;;;5027090;28;20406;-84
2020/12/28 09:21:57;;;;;;;;;;;;;;;;;;5036288;28;20478;-82
2020/12/28 09:24:24;;;;;;;;;;;;;;;;;;5039283;28;20439;-83
2020/12/28 09:26:50;;;;;;;;;;;;;;;;;;5038455;28;20415;-83
2020/12/28 09:29:17;;;;;;;;;;;;;;;;;;5039444;28;20465;-84
2020/12/28 09:34:31;;;;;;;;;;;;;;;;;;5035349;28;20414;-80
2020/12/28 09:36:57;;;;;;;;;;;;;;;;;;5040196;28;20410;-83
2020/12/28 09:39:23;;;;;;;;;;;;;;;;;;5041741;28;20383;-82
2020/12/28 09:41:50;;;;;;;;;;;;;;;;;;5047067;28;20848;-81
2020/12/28 09:44:16;;;;;;;;;;;;;;;;;;5028176;28;20413;-82
2020/12/28 09:46:43;;;;;;;;;;;;;;;;;;5029251;28;20425;-81
2020/12/28 09:49:09;;;;;;;;;;;;;;;;;;5030973;28;20395;-79
2020/12/28 09:51:35;;;;;;;;;;;;;;;;;;5045666;28;20387;-81
2020/12/28 10:16:01;;;;;;;;;;;;;;;;;;5038208;28;20443;-84
2020/12/28 10:23:57;;;;;;;;;;;;;;;;;;5039121;28;20937;-84
2020/12/28 10:26:23;;;;;;;;;;;;;;;;;;5037678;28;26074;-83
2020/12/28 10:28:49;;;;;;;;;;;;;;;;;;5035316;28;20632;-83
2020/12/28 10:31:16;;;;;;;;;;;;;;;;;;5027171;28;25058;-83
2020/12/28 10:33:42;;;;;;;;;;;;;;;;;;5021169;28;19926;-81
2020/12/28 10:36:09;;;;;;;;;;;;;;;;;;5018054;28;19930;-80
2020/12/28 10:38:36;;;;;;;;;;;;;;;;;;5029076;28;20322;-84
2020/12/28 10:41:03;;;;;;;;;;;;;;;;;;5024731;28;19926;-83
2020/12/28 10:43:30;;;;;;;;;;;;;;;;;;5021122;28;19929;-81
2020/12/28 10:45:56;;;;;;;;;;;;;;;;;;5019313;28;19987;-84
2020/12/28 10:48:24;;;;;;;;;;;;;;;;;;5027439;28;19930;-83
2020/12/28 10:50:50;;;;;;;;;;;;;;;;;;5032407;28;20297;-82
2020/12/28 10:53:17;;;;;;;;;;;;;;;;;;5037313;28;19929;-82
2020/12/28 10:55:43;;;;;;;;;;;;;;;;;;5037452;28;19925;-82
2020/12/28 10:58:11;;;;;;;;;;;;;;;;;;5037352;28;19932;-83
2020/12/28 11:00:38;;;;;;;;;;;;;;;;;;5037145;28;19929;-83
2020/12/28 11:03:04;;;;;;;;;;;;;;;;;;5038076;28;19968;-81
2020/12/28 11:05:30;;;;;;;;;;;;;;;;;;5025197;28;19926;-82
2020/12/28 11:07:57;;;;;;;;;;;;;;;;;;5017147;28;19926;-82
2020/12/28 11:10:23;;;;;;;;;;;;;;;;;;5017722;28;19987;-82
2020/12/28 11:12:50;;;;;;;;;;;;;;;;;;5017532;28;20305;-83
2020/12/28 11:15:16;;;;;;;;;;;;;;;;;;5017497;28;19930;-84
2020/12/28 11:17:42;;;;;;;;;;;;;;;;;;5027223;28;19932;-84
2020/12/28 11:20:09;;;;;;;;;;;;;;;;;;5022712;28;19971;-84
2020/12/28 11:22:35;;;;;;;;;;;;;;;;;;5022329;28;19941;-83
2020/12/28 11:25:03;;;;;;;;;;;;;;;;;;5017938;28;19925;-83
2020/12/28 11:27:30;;;;;;;;;;;;;;;;;;5017858;28;19929;-83
2020/12/28 11:29:57;;;;;;;;;;;;;;;;;;5031679;28;19929;-83
2020/12/28 11:32:23;;;;;;;;;;;;;;;;;;5028847;28;19926;-83
2020/12/28 11:34:55;;;;;;;;;;;;;;;;;;5018176;28;19936;-82
2020/12/28 11:37:21;;;;;;;;;;;;;;;;;;5021511;28;19925;-83
2020/12/28 11:39:48;;;;;;;;;;;;;;;;;;5033000;28;19925;-82
2020/12/28 11:42:15;;;;;;;;;;;;;;;;;;5029899;28;19956;-83
2020/12/28 11:44:43;;;;;;;;;;;;;;;;;;5023327;28;20452;-82
2020/12/28 11:52:44;;;;;;;;;;;;;;;;;;4975568;28;19921;-82
2020/12/28 11:55:10;;;;;;;;;;;;;;;;;;4975312;28;19945;-84
2020/12/28 12:00:17;;;;;;;;;;;;;;;;;;4973553;28;19980;-82
2020/12/28 12:02:44;;;;;;;;;;;;;;;;;;4974970;28;19941;-82
2020/12/28 12:05:10;;;;;;;;;;;;;;;;;;4975531;28;19930;-82
2020/12/28 12:07:37;;;;;;;;;;;;;;;;;;4975251;28;20375;-82
2020/12/28 12:10:03;;;;;;;;;;;;;;;;;;4984064;28;20100;-82
2020/12/28 12:12:29;;;;;;;;;;;;;;;;;;4978350;28;19934;-83
2020/12/28 12:14:56;;;;;;;;;;;;;;;;;;4980096;28;19930;-83
2020/12/28 12:17:22;;;;;;;;;;;;;;;;;;4976612;28;19933;-84
2020/12/28 12:19:49;;;;;;;;;;;;;;;;;;4983748;28;20314;-81
2020/12/28 12:22:15;;;;;;;;;;;;;;;;;;4982206;28;20017;-83
2020/12/28 12:24:41;;;;;;;;;;;;;;;;;;4977293;28;19935;-83
2020/12/28 12:27:08;;;;;;;;;;;;;;;;;;4999311;28;19925;-83
2020/12/28 12:29:34;;;;;;;;;;;;;;;;;;5016113;28;19925;-83
2020/12/28 12:32:01;;;;;;;;;;;;;;;;;;5027110;28;19925;-83
2020/12/28 12:34:27;;;;;;;;;;;;;;;;;;5035212;28;19932;-83
2020/12/28 12:36:54;;;;;;;;;;;;;;;;;;5035731;28;19940;-83
2020/12/28 12:39:20;;;;;;;;;;;;;;;;;;5036220;28;20377;-82
2020/12/28 12:41:47;;;;;;;;;;;;;;;;;;5035701;28;19968;-82
2020/12/28 12:44:14;;;;;;;;;;;;;;;;;;5036379;28;19944;-83
2020/12/28 12:46:40;;;;;;;;;;;;;;;;;;5036448;28;19929;-83
2020/12/28 12:49:07;;;;;;;;;;;;;;;;;;5039416;28;19925;-84
2020/12/28 12:51:33;;;;;;;;;;;;;;;;;;5023931;28;19940;-83
2020/12/28 12:53:59;;;;;;;;;;;;;;;;;;5019652;28;19932;-83
2020/12/28 12:56:26;;;;;;;;;;;;;;;;;;5019844;28;19925;-83
2020/12/28 12:58:52;;;;;;;;;;;;;;;;;;5024193;28;19925;-82
2020/12/28 13:01:19;;;;;;;;;;;;;;;;;;5022552;28;19940;-84
2020/12/28 13:03:45;;;;;;;;;;;;;;;;;;5017700;28;19932;-84
2020/12/28 13:06:12;;;;;;;;;;;;;;;;;;5026876;28;20325;-83
2020/12/28 13:08:38;;;;;;;;;;;;;;;;;;5019975;28;19925;-82
2020/12/28 13:11:04;;;;;;;;;;;;;;;;;;5039639;28;19925;-82
2020/12/28 13:13:31;;;;;;;;;;;;;;;;;;5040546;28;20294;-82
2020/12/28 13:15:57;;;;;;;;;;;;;;;;;;5039506;28;19925;-82
2020/12/28 13:18:24;;;;;;;;;;;;;;;;;;5037994;28;19925;-82
2020/12/28 13:20:50;;;;;;;;;;;;;;;;;;5039389;28;19925;-82
2020/12/28 13:23:16;;;;;;;;;;;;;;;;;;5039318;28;20373;-82
2020/12/28 13:25:43;;;;;;;;;;;;;;;;;;5038995;28;19925;-82
2020/12/28 13:28:09;;;;;;;;;;;;;;;;;;5038785;28;19925;-82
2020/12/28 13:30:36;;;;;;;;;;;;;;;;;;5039060;28;19929;-82
2020/12/28 13:33:02;;;;;;;;;;;;;;;;;;5039528;28;19925;-82
2020/12/28 13:35:28;;;;;;;;;;;;;;;;;;5038815;28;19929;-84
2020/12/28 13:37:55;;;;;;;;;;;;;;;;;;5038854;28;19925;-82
2020/12/28 13:40:21;;;;;;;;;;;;;;;;;;5038384;28;19932;-82
2020/12/28 13:42:48;;;;;;;;;;;;;;;;;;5039792;28;19941;-82
2020/12/28 13:45:14;;;;;;;;;;;;;;;;;;5039454;28;19992;-83
2020/12/28 13:47:44;;;;;;;;;;;;;;;;;;5039754;28;20328;-83
2020/12/28 13:50:13;;;;;;;;;;;;;;;;;;5041358;28;19925;-82
2020/12/28 13:52:39;;;;;;;;;;;;;;;;;;5044654;28;19971;-84
2020/12/28 13:55:10;;;;;;;;;;;;;;;;;;5044857;28;19929;-82
2020/12/28 13:57:36;;;;;;;;;;;;;;;;;;5040220;28;19929;-82
2020/12/28 14:00:02;;;;;;;;;;;;;;;;;;5036586;28;19926;-81
2020/12/28 14:02:29;;;;;;;;;;;;;;;;;;5022978;28;20269;-81
2020/12/28 14:04:55;;;;;;;;;;;;;;;;;;5019723;28;19925;-83
2020/12/28 14:07:22;;;;;;;;;;;;;;;;;;5053952;23;19947;-81
2020/12/28 14:09:48;;;;;;;;;;;;;;;;;;5074300;28;19928;-81
2020/12/28 14:12:14;;;;;;;;;;;;;;;;;;5080844;28;19947;-82
2020/12/28 14:14:41;;;;;;;;;;;;;;;;;;5077417;28;20033;-81
2020/12/28 14:17:07;;;;;;;;;;;;;;;;;;5083077;28;19924;-82
2020/12/28 14:19:34;;;;;;;;;;;;;;;;;;5079748;28;20300;-83
2020/12/28 14:22:00;;;;;;;;;;;;;;;;;;5088139;28;19953;-84
2020/12/28 14:24:26;;;;;;;;;;;;;;;;;;5112084;28;19928;-81
2020/12/28 14:26:53;;;;;;;;;;;;;;;;;;5116414;28;19924;-80
2020/12/28 14:29:19;;;;;;;;;;;;;;;;;;5118470;28;19939;-82
2020/12/28 14:31:45;;;;;;;;;;;;;;;;;;5118342;28;19924;-82
2020/12/28 14:34:12;;;;;;;;;;;;;;;;;;5119210;28;19924;-80
2020/12/28 14:36:40;;;;;;;;;;;;;;;;;;5118021;28;19924;-79
2020/12/28 14:39:06;;;;;;;;;;;;;;;;;;5103948;28;19928;-82
2020/12/28 14:41:33;;;;;;;;;;;;;;;;;;5101850;28;19970;-82
2020/12/28 14:43:59;;;;;;;;;;;;;;;;;;5101935;28;20419;-82
2020/12/28 14:46:25;;;;;;;;;;;;;;;;;;5106558;28;19931;-83
2020/12/28 14:48:52;;;;;;;;;;;;;;;;;;5100141;28;19973;-82
2020/12/28 14:51:18;;;;;;;;;;;;;;;;;;5100671;28;20241;-81
2020/12/28 14:53:45;;;;;;;;;;;;;;;;;;5099294;28;20422;-81
2020/12/28 14:56:11;;;;;;;;;;;;;;;;;;5098516;28;20403;-82
2020/12/28 14:58:37;;;;;;;;;;;;;;;;;;5099957;28;20399;-82
2020/12/28 15:01:04;;;;;;;;;;;;;;;;;;5102134;28;20383;-80
2020/12/28 15:03:30;;;;;;;;;;;;;;;;;;5101870;28;20429;-80
2020/12/28 15:05:57;;;;;;;;;;;;;;;;;;5086964;28;20405;-81
2020/12/28 15:08:23;;;;;;;;;;;;;;;;;;5079814;28;20406;-80
2020/12/28 15:10:49;;;;;;;;;;;;;;;;;;5090109;28;20389;-80
2020/12/28 15:13:16;;;;;;;;;;;;;;;;;;5089413;28;20379;-80
2020/12/28 15:15:42;;;;;;;;;;;;;;;;;;5096487;28;20375;-82
2020/12/28 15:18:09;;;;;;;;;;;;;;;;;;5088803;28;20417;-81
2020/12/28 15:20:35;;;;;;;;;;;;;;;;;;5089553;28;20862;-82
2020/12/28 15:23:02;;;;;;;;;;;;;;;;;;5084108;28;20382;-80
2020/12/28 15:25:28;;;;;;;;;;;;;;;;;;5082868;28;20386;-81
2020/12/28 15:27:55;;;;;;;;;;;;;;;;;;5082514;28;20397;-82
2020/12/28 15:30:23;;;;;;;;;;;;;;;;;;5084545;28;20431;-79
2020/12/28 15:32:50;;;;;;;;;;;;;;;;;;5084053;28;20405;-81
2020/12/28 15:35:16;;;;;;;;;;;;;;;;;;5083424;28;20443;-81
2020/12/28 15:37:46;;;;;;;;;;;;;;;;;;5080421;28;20424;-82
2020/12/28 15:40:12;;;;;;;;;;;;;;;;;;5079243;28;20382;-82
2020/12/28 15:42:38;;;;;;;;;;;;;;;;;;5077379;28;20386;-82
2020/12/28 15:45:07;;;;;;;;;;;;;;;;;;5077326;28;20385;-81
2020/12/28 15:47:34;;;;;;;;;;;;;;;;;;5077384;28;20474;-82
2020/12/28 15:50:00;;;;;;;;;;;;;;;;;;5088962;28;20389;-80
2020/12/28 15:52:26;;;;;;;;;;;;;;;;;;5109147;28;20386;-80
2020/12/28 15:54:53;;;;;;;;;;;;;;;;;;5112802;28;20394;-81
2020/12/28 15:57:19;;;;;;;;;;;;;;;;;;5088589;28;20401;-82
2020/12/28 15:59:48;;;;;;;;;;;;;;;;;;5079189;28;20792;-82
2020/12/28 16:02:14;;;;;;;;;;;;;;;;;;5086374;28;20374;-81
2020/12/28 16:04:41;;;;;;;;;;;;;;;;;;5085252;28;20380;-83
2020/12/28 16:07:07;;;;;;;;;;;;;;;;;;5091185;28;20391;-83
2020/12/28 16:09:34;;;;;;;;;;;;;;;;;;5101897;28;20379;-82
2020/12/28 16:12:03;;;;;;;;;;;;;;;;;;5106538;28;20393;-78
2020/12/28 16:14:29;;;;;;;;;;;;;;;;;;5093168;28;20516;-80
2020/12/28 16:16:56;;;;;;;;;;;;;;;;;;5079420;28;20382;-80
2020/12/28 16:19:22;;;;;;;;;;;;;;;;;;5082718;28;20380;-82
2020/12/28 16:21:48;;;;;;;;;;;;;;;;;;5092394;28;20428;-81
2020/12/28 16:24:18;;;;;;;;;;;;;;;;;;5101492;28;20900;-81
2020/12/28 16:26:44;;;;;;;;;;;;;;;;;;5099957;28;20402;-81
2020/12/28 16:29:10;;;;;;;;;;;;;;;;;;5099370;28;20399;-81
2020/12/28 16:31:37;;;;;;;;;;;;;;;;;;5092677;28;20385;-81
2020/12/28 16:34:03;;;;;;;;;;;;;;;;;;5081889;28;20404;-80
2020/12/28 16:36:31;;;;;;;;;;;;;;;;;;5072797;28;20378;-81
2020/12/28 16:38:57;;;;;;;;;;;;;;;;;;5087011;28;20437;-81
2020/12/28 16:41:26;;;;;;;;;;;;;;;;;;5079267;28;20749;-80
2020/12/28 16:43:53;;;;;;;;;;;;;;;;;;5087848;28;20390;-80
2020/12/28 16:46:19;;;;;;;;;;;;;;;;;;5078361;28;20397;-81
2020/12/28 16:48:54;;;;;;;;;;;;;;;;;;5082870;28;20909;-81
2020/12/28 16:51:20;;;;;;;;;;;;;;;;;;5082676;28;20382;-80
2020/12/28 16:53:47;;;;;;;;;;;;;;;;;;5080813;28;20382;-82
2020/12/28 16:56:13;;;;;;;;;;;;;;;;;;5082002;28;20796;-81
2020/12/28 16:58:40;;;;;;;;;;;;;;;;;;5091698;28;20861;-81
2020/12/28 17:01:06;;;;;;;;;;;;;;;;;;5060551;28;20393;-80
2020/12/28 17:03:32;;;;;;;;;;;;;;;;;;5059529;28;20388;-81
2020/12/28 17:05:59;;;;;;;;;;;;;;;;;;5058775;28;20408;-80
2020/12/28 17:08:25;;;;;;;;;;;;;;;;;;5059659;28;20776;-82
2020/12/28 17:10:52;;;;;;;;;;;;;;;;;;5060692;28;20389;-81
2020/12/28 17:13:18;;;;;;;;;;;;;;;;;;5073580;28;20388;-79
2020/12/28 17:15:44;;;;;;;;;;;;;;;;;;5105623;28;20375;-79
2020/12/28 17:18:11;;;;;;;;;;;;;;;;;;5089916;28;20414;-80